< Typhoon 199419 1994 Season Typhoon 199421 >
Typhoon 199420 (JOHN)
General InformationTrack Information on Google MapsDetailed Wind InformationList of All Images || Disaster Info.ResourceGoogle EarthGE AnimationAtom FeedGeoJSON
Detalied Best Track (Time Zone = UTC)
Year Month Day Hour Lat. Long. Pressure (hPa) Wind (kt) Class Image Chart
1994 8 28 06 21.6 180.5 940 85 7 Image Chart
1994 8 28 12 22.2 179.3 945 85 5 Image Chart
1994 8 28 18 22.8 178.3 945 85 5 Image Chart
1994 8 29 00 23.3 177.3 945 85 5 Image Chart
1994 8 29 06 23.8 176.4 945 85 5 Image Chart
1994 8 29 12 24.3 175.6 945 85 5 Image Chart
1994 8 29 18 24.8 175.0 950 80 5 Image Chart
1994 8 30 00 25.2 174.5 955 75 5 Image Chart
1994 8 30 06 25.6 174.1 960 70 5 Image Chart
1994 8 30 12 26.0 173.8 965 65 5 Image Chart
1994 8 30 18 26.4 173.4 970 65 5 Image Chart
1994 8 31 00 26.9 173.1 975 60 4 Image Chart
1994 8 31 06 27.4 172.8 975 60 4 Image Chart
1994 8 31 12 27.8 173.1 975 60 4 Image Chart
1994 8 31 18 28.0 173.5 980 55 4 Image Chart
1994 9 1 00 27.9 173.8 980 55 4 Image Chart
1994 9 1 06 27.7 173.9 985 50 4 Image Chart
1994 9 1 12 27.4 174.1 990 45 3 Image Chart
1994 9 1 18 27.3 174.4 996 40 3 Image Chart
1994 9 2 00 27.3 174.8 996 40 3 Image Chart
1994 9 2 06 27.3 175.3 996 40 3 Image Chart
1994 9 2 12 27.3 175.8 996 40 3 Image Chart
1994 9 2 18 27.3 176.3 996 40 3 Image Chart
1994 9 3 00 27.2 176.7 996 40 3 Image Chart
1994 9 3 06 27.0 177.2 996 40 3 Image Chart
1994 9 3 12 26.9 177.5 996 40 3 Image Chart
1994 9 3 18 26.7 177.8 996 40 3 Image Chart
1994 9 4 00 26.5 178.0 992 45 3 Image Chart
1994 9 4 06 26.3 178.3 992 45 3 Image Chart
1994 9 4 12 26.2 178.5 990 50 4 Image Chart
1994 9 4 18 26.1 178.4 990 50 4 Image Chart
1994 9 5 00 26.0 178.1 990 50 4 Image Chart
1994 9 5 06 26.1 177.8 990 50 4 Image Chart
1994 9 5 12 26.3 177.5 992 45 3 Image Chart
1994 9 5 18 26.7 177.2 992 45 3 Image Chart
1994 9 6 00 27.1 176.8 994 40 3 Image Chart
1994 9 6 06 27.7 176.2 994 40 3 Image Chart
1994 9 6 12 28.1 175.6 994 40 3 Image Chart
1994 9 6 18 28.5 175.4 994 40 3 Image Chart
1994 9 7 00 29.0 175.2 992 45 3 Image Chart
1994 9 7 06 29.4 175.3 992 45 3 Image Chart
1994 9 7 12 29.5 175.8 992 45 3 Image Chart
1994 9 7 18 29.6 176.6 990 45 3 Image Chart
1994 9 8 00 29.9 177.5 990 45 3 Image Chart
1994 9 8 06 30.5 178.8 990 45 3 Image Chart
1994 9 8 12 31.0 179.8 985 50 4 Image Chart
1994 9 8 18 31.8 181.1 980 55 4 Image Chart
Japan Meteorological Agency Best Track Data | Correction Date : 1995-01-30
< Typhoon 199419 1994 Season Typhoon 199421 >

Help